sensor_id;sensor_type;location;lat;lon;timestamp;pressure;altitude;pressure_sealevel;temperature;humidity
85758;BME280;76202;52.626;4.746;2024-03-29T00:00:41;98701.00;;;15.81;67.25
85758;BME280;76202;52.626;4.746;2024-03-29T00:03:08;98688.59;;;15.80;66.85
85758;BME280;76202;52.626;4.746;2024-03-29T00:05:34;98702.88;;;15.81;66.71
85758;BME280;76202;52.626;4.746;2024-03-29T00:07:59;98687.00;;;15.79;66.75
85758;BME280;76202;52.626;4.746;2024-03-29T00:10:25;98683.75;;;15.77;66.40
85758;BME280;76202;52.626;4.746;2024-03-29T00:12:50;98686.19;;;15.79;67.03
85758;BME280;76202;52.626;4.746;2024-03-29T00:15:16;98702.06;;;15.80;66.68
85758;BME280;76202;52.626;4.746;2024-03-29T00:17:41;98705.88;;;15.79;67.06
85758;BME280;76202;52.626;4.746;2024-03-29T00:20:07;98699.09;;;15.77;66.81
85758;BME280;76202;52.626;4.746;2024-03-29T00:22:33;98705.88;;;15.79;66.97
85758;BME280;76202;52.626;4.746;2024-03-29T00:24:59;98702.34;;;15.79;66.91
85758;BME280;76202;52.626;4.746;2024-03-29T00:27:24;98711.50;;;15.78;66.46
85758;BME280;76202;52.626;4.746;2024-03-29T00:29:52;98708.81;;;15.78;67.08
85758;BME280;76202;52.626;4.746;2024-03-29T00:32:21;98710.69;;;15.77;67.26
85758;BME280;76202;52.626;4.746;2024-03-29T00:34:50;98713.13;;;15.79;67.13
85758;BME280;76202;52.626;4.746;2024-03-29T00:37:17;98711.50;;;15.78;67.21
85758;BME280;76202;52.626;4.746;2024-03-29T00:39:43;98726.63;;;15.79;67.08
85758;BME280;76202;52.626;4.746;2024-03-29T00:42:08;98711.81;;;15.76;67.25
85758;BME280;76202;52.626;4.746;2024-03-29T00:44:35;98719.06;;;15.76;66.97
85758;BME280;76202;52.626;4.746;2024-03-29T00:47:02;98724.19;;;15.77;67.14
85758;BME280;76202;52.626;4.746;2024-03-29T00:49:28;98719.31;;;15.74;67.39
85758;BME280;76202;52.626;4.746;2024-03-29T00:51:56;98723.13;;;15.73;67.17
85758;BME280;76202;52.626;4.746;2024-03-29T00:54:21;98726.59;;;15.74;67.34
85758;BME280;76202;52.626;4.746;2024-03-29T00:56:48;98727.94;;;15.71;67.00
85758;BME280;76202;52.626;4.746;2024-03-29T00:59:14;98736.84;;;15.72;66.80
85758;BME280;76202;52.626;4.746;2024-03-29T01:01:39;98725.25;;;15.71;67.20
85758;BME280;76202;52.626;4.746;2024-03-29T01:04:04;98730.94;;;15.70;67.50
85758;BME280;76202;52.626;4.746;2024-03-29T01:06:30;98733.34;;;15.71;67.03
85758;BME280;76202;52.626;4.746;2024-03-29T01:08:55;98724.19;;;15.72;67.92
85758;BME280;76202;52.626;4.746;2024-03-29T01:11:21;98720.16;;;15.70;66.68
85758;BME280;76202;52.626;4.746;2024-03-29T01:13:47;98732.53;;;15.71;67.88
85758;BME280;76202;52.626;4.746;2024-03-29T01:16:12;98729.84;;;15.71;67.61
85758;BME280;76202;52.626;4.746;2024-03-29T01:18:38;98730.41;;;15.68;67.94
85758;BME280;76202;52.626;4.746;2024-03-29T01:21:04;98731.19;;;15.68;67.51
85758;BME280;76202;52.626;4.746;2024-03-29T01:23:29;98733.34;;;15.71;67.53
85758;BME280;76202;52.626;4.746;2024-03-29T01:25:54;98739.03;;;15.70;67.68
85758;BME280;76202;52.626;4.746;2024-03-29T01:28:20;98738.50;;;15.68;67.56
85758;BME280;76202;52.626;4.746;2024-03-29T01:30:52;98740.38;;;15.67;67.30
85758;BME280;76202;52.626;4.746;2024-03-29T01:33:18;98733.09;;;15.68;67.12
85758;BME280;76202;52.626;4.746;2024-03-29T01:35:43;98725.03;;;15.68;67.72
85758;BME280;76202;52.626;4.746;2024-03-29T01:38:10;98730.41;;;15.68;68.15
85758;BME280;76202;52.626;4.746;2024-03-29T01:40:35;98722.03;;;15.64;67.75
85758;BME280;76202;52.626;4.746;2024-03-29T01:43:01;98724.47;;;15.66;67.58
85758;BME280;76202;52.626;4.746;2024-03-29T01:45:27;98726.09;;;15.67;67.42
85758;BME280;76202;52.626;4.746;2024-03-29T01:47:53;98730.41;;;15.68;67.34
85758;BME280;76202;52.626;4.746;2024-03-29T01:50:20;98725.81;;;15.68;67.57
85758;BME280;76202;52.626;4.746;2024-03-29T01:52:45;98727.44;;;15.64;67.95
85758;BME280;76202;52.626;4.746;2024-03-29T01:55:11;98725.00;;;15.62;68.07
85758;BME280;76202;52.626;4.746;2024-03-29T01:57:37;98723.66;;;15.65;67.50
85758;BME280;76202;52.626;4.746;2024-03-29T02:00:04;98714.78;;;15.65;67.44
85758;BME280;76202;52.626;4.746;2024-03-29T02:02:32;98718.25;;;15.65;67.68
85758;BME280;76202;52.626;4.746;2024-03-29T02:04:58;98711.28;;;15.64;67.63
85758;BME280;76202;52.626;4.746;2024-03-29T02:07:24;98693.75;;;15.61;67.26
85758;BME280;76202;52.626;4.746;2024-03-29T02:09:50;98706.94;;;15.63;68.14
85758;BME280;76202;52.626;4.746;2024-03-29T02:12:15;98701.84;;;15.67;67.47
85758;BME280;76202;52.626;4.746;2024-03-29T02:14:41;98708.56;;;15.64;68.21
85758;BME280;76202;52.626;4.746;2024-03-29T02:17:08;98695.09;;;15.64;67.87
85758;BME280;76202;52.626;4.746;2024-03-29T02:19:33;98688.63;;;15.65;67.69
85758;BME280;76202;52.626;4.746;2024-03-29T02:21:59;98701.03;;;15.66;68.67
85758;BME280;76202;52.626;4.746;2024-03-29T02:24:26;98716.13;;;15.67;68.00
85758;BME280;76202;52.626;4.746;2024-03-29T02:26:54;98721.75;;;15.66;68.11
85758;BME280;76202;52.626;4.746;2024-03-29T02:29:23;98713.97;;;15.64;68.17
85758;BME280;76202;52.626;4.746;2024-03-29T02:31:49;98717.19;;;15.66;68.29
85758;BME280;76202;52.626;4.746;2024-03-29T02:34:14;98710.16;;;15.65;68.09
85758;BME280;76202;52.626;4.746;2024-03-29T02:36:40;98712.34;;;15.63;68.28
85758;BME280;76202;52.626;4.746;2024-03-29T02:39:07;98715.03;;;15.63;67.80
85758;BME280;76202;52.626;4.746;2024-03-29T02:41:32;98708.56;;;15.64;68.04
85758;BME280;76202;52.626;4.746;2024-03-29T02:43:58;98698.06;;;15.62;68.39
85758;BME280;76202;52.626;4.746;2024-03-29T02:46:23;98697.25;;;15.62;67.82
85758;BME280;76202;52.626;4.746;2024-03-29T02:48:49;98702.63;;;15.62;67.33
85758;BME280;76202;52.626;4.746;2024-03-29T02:51:14;98704.53;;;15.61;68.04
85758;BME280;76202;52.626;4.746;2024-03-29T02:53:40;98717.19;;;15.61;68.29
85758;BME280;76202;52.626;4.746;2024-03-29T02:56:05;98734.97;;;15.62;67.98
85758;BME280;76202;52.626;4.746;2024-03-29T02:58:33;98722.56;;;15.66;68.07
85758;BME280;76202;52.626;4.746;2024-03-29T03:01:05;98725.00;;;15.62;68.34
85758;BME280;76202;52.626;4.746;2024-03-29T03:03:35;98742.25;;;15.61;68.10
85758;BME280;76202;52.626;4.746;2024-03-29T03:06:01;98741.19;;;15.68;68.00
85758;BME280;76202;52.626;4.746;2024-03-29T03:08:28;98754.38;;;15.69;68.60
85758;BME280;76202;52.626;4.746;2024-03-29T03:11:12;98739.56;;;15.67;68.74
85758;BME280;76202;52.626;4.746;2024-03-29T03:13:37;98738.22;;;15.64;68.75
85758;BME280;76202;52.626;4.746;2024-03-29T03:16:03;98749.25;;;15.62;68.27
85758;BME280;76202;52.626;4.746;2024-03-29T03:18:29;98750.06;;;15.63;68.34
85758;BME280;76202;52.626;4.746;2024-03-29T03:20:55;98738.47;;;15.62;68.32
85758;BME280;76202;52.626;4.746;2024-03-29T03:23:23;98728.78;;;15.61;68.57
85758;BME280;76202;52.626;4.746;2024-03-29T03:25:59;98732.25;;;15.62;68.74
85758;BME280;76202;52.626;4.746;2024-03-29T03:28:25;98724.19;;;15.62;68.83
85758;BME280;76202;52.626;4.746;2024-03-29T03:30:52;98734.72;;;15.58;68.45
85758;BME280;76202;52.626;4.746;2024-03-29T03:33:18;98739.28;;;15.58;68.12
85758;BME280;76202;52.626;4.746;2024-03-29T03:35:44;98750.31;;;15.56;68.83
85758;BME280;76202;52.626;4.746;2024-03-29T03:38:10;98756.00;;;15.60;68.38
85758;BME280;76202;52.626;4.746;2024-03-29T03:40:37;98748.44;;;15.57;68.14
85758;BME280;76202;52.626;4.746;2024-03-29T03:43:02;98754.34;;;15.59;68.53
85758;BME280;76202;52.626;4.746;2024-03-29T03:45:28;98763.25;;;15.59;68.55
85758;BME280;76202;52.626;4.746;2024-03-29T03:47:55;98744.94;;;15.56;68.69
85758;BME280;76202;52.626;4.746;2024-03-29T03:50:20;98744.69;;;15.58;68.18
85758;BME280;76202;52.626;4.746;2024-03-29T03:52:46;98759.75;;;15.59;68.72
85758;BME280;76202;52.626;4.746;2024-03-29T03:55:11;98763.53;;;15.58;68.87
85758;BME280;76202;52.626;4.746;2024-03-29T03:57:37;98766.50;;;15.56;68.96
85758;BME280;76202;52.626;4.746;2024-03-29T04:00:03;98757.06;;;15.59;68.71
85758;BME280;76202;52.626;4.746;2024-03-29T04:02:28;98764.88;;;15.60;68.71
85758;BME280;76202;52.626;4.746;2024-03-29T04:04:54;98766.25;;;15.58;68.35
85758;BME280;76202;52.626;4.746;2024-03-29T04:07:19;98782.41;;;15.58;68.18
85758;BME280;76202;52.626;4.746;2024-03-29T04:09:45;98782.41;;;15.58;68.50
85758;BME280;76202;52.626;4.746;2024-03-29T04:12:10;98785.09;;;15.58;68.23
85758;BME280;76202;52.626;4.746;2024-03-29T04:14:37;98790.50;;;15.58;68.79
85758;BME280;76202;52.626;4.746;2024-03-29T04:17:02;98789.16;;;15.55;68.94
85758;BME280;76202;52.626;4.746;2024-03-29T04:19:30;98781.06;;;15.55;68.61
85758;BME280;76202;52.626;4.746;2024-03-29T04:21:56;98781.06;;;15.55;68.70
85758;BME280;76202;52.626;4.746;2024-03-29T04:24:22;98773.22;;;15.54;68.48
85758;BME280;76202;52.626;4.746;2024-03-29T04:26:47;98774.84;;;15.55;68.21
85758;BME280;76202;52.626;4.746;2024-03-29T04:29:12;98778.91;;;15.57;68.62
85758;BME280;76202;52.626;4.746;2024-03-29T04:31:39;98789.66;;;15.57;68.83
85758;BME280;76202;52.626;4.746;2024-03-29T04:34:04;98784.53;;;15.56;68.63
85758;BME280;76202;52.626;4.746;2024-03-29T04:36:30;98781.06;;;15.55;68.70
85758;BME280;76202;52.626;4.746;2024-03-29T04:38:55;98774.56;;;15.56;68.61
85758;BME280;76202;52.626;4.746;2024-03-29T04:41:20;98771.63;;;15.58;68.47
85758;BME280;76202;52.626;4.746;2024-03-29T04:43:46;98781.84;;;15.56;68.18
85758;BME280;76202;52.626;4.746;2024-03-29T04:46:12;98779.44;;;15.54;68.61
85758;BME280;76202;52.626;4.746;2024-03-29T04:48:42;98779.69;;;15.53;68.15
85758;BME280;76202;52.626;4.746;2024-03-29T04:51:10;98782.13;;;15.54;68.86
85758;BME280;76202;52.626;4.746;2024-03-29T04:53:36;98775.09;;;15.53;68.47
85758;BME280;76202;52.626;4.746;2024-03-29T04:56:02;98777.81;;;15.53;68.32
85758;BME280;76202;52.626;4.746;2024-03-29T04:58:31;98800.16;;;15.54;68.56
85758;BME280;76202;52.626;4.746;2024-03-29T05:00:57;98791.28;;;15.53;68.19
85758;BME280;76202;52.626;4.746;2024-03-29T05:03:23;98795.59;;;15.54;68.41
85758;BME280;76202;52.626;4.746;2024-03-29T05:05:53;98795.31;;;15.51;68.49
85758;BME280;76202;52.626;4.746;2024-03-29T05:08:19;98791.56;;;15.52;68.31
85758;BME280;76202;52.626;4.746;2024-03-29T05:10:45;98793.97;;;15.53;68.26
85758;BME280;76202;52.626;4.746;2024-03-29T05:13:11;98800.16;;;15.54;68.89
85758;BME280;76202;52.626;4.746;2024-03-29T05:15:37;98786.69;;;15.54;68.38
85758;BME280;76202;52.626;4.746;2024-03-29T05:18:02;98802.63;;;15.55;68.42
85758;BME280;76202;52.626;4.746;2024-03-29T05:20:29;98805.03;;;15.52;68.46
85758;BME280;76202;52.626;4.746;2024-03-29T05:22:54;98810.41;;;15.52;68.56
85758;BME280;76202;52.626;4.746;2024-03-29T05:25:19;98794.78;;;15.54;68.88
85758;BME280;76202;52.626;4.746;2024-03-29T05:27:45;98808.25;;;15.54;68.32
85758;BME280;76202;52.626;4.746;2024-03-29T05:30:11;98810.69;;;15.55;68.34
85758;BME280;76202;52.626;4.746;2024-03-29T05:32:36;98811.75;;;15.54;68.53
85758;BME280;76202;52.626;4.746;2024-03-29T05:35:01;98813.38;;;15.50;68.80
85758;BME280;76202;52.626;4.746;2024-03-29T05:37:27;98814.19;;;15.51;68.79
85758;BME280;76202;52.626;4.746;2024-03-29T05:39:53;98816.06;;;15.50;68.75
85758;BME280;76202;52.626;4.746;2024-03-29T05:42:29;98818.50;;;15.52;68.22
85758;BME280;76202;52.626;4.746;2024-03-29T05:44:55;98811.22;;;15.52;68.49
85758;BME280;76202;52.626;4.746;2024-03-29T05:47:21;98817.97;;;15.50;68.64
85758;BME280;76202;52.626;4.746;2024-03-29T05:49:48;98820.91;;;15.48;68.46
85758;BME280;76202;52.626;4.746;2024-03-29T05:52:13;98826.31;;;15.53;68.27
85758;BME280;76202;52.626;4.746;2024-03-29T05:54:46;98826.59;;;15.52;68.58
85758;BME280;76202;52.626;4.746;2024-03-29T05:57:11;98840.06;;;15.52;68.85
85758;BME280;76202;52.626;4.746;2024-03-29T05:59:37;98841.13;;;15.51;68.85
85758;BME280;76202;52.626;4.746;2024-03-29T06:02:03;98842.75;;;15.47;67.94
85758;BME280;76202;52.626;4.746;2024-03-29T06:04:29;98843.81;;;15.51;68.32
85758;BME280;76202;52.626;4.746;2024-03-29T06:07:07;98855.94;;;15.53;68.31
85758;BME280;76202;52.626;4.746;2024-03-29T06:09:33;98850.31;;;15.55;67.93
85758;BME280;76202;52.626;4.746;2024-03-29T06:11:59;98865.13;;;15.62;68.18
85758;BME280;76202;52.626;4.746;2024-03-29T06:14:25;98858.38;;;15.65;67.77
85758;BME280;76202;52.626;4.746;2024-03-29T06:17:09;98859.19;;;15.71;67.32
85758;BME280;76202;52.626;4.746;2024-03-29T06:19:50;98857.59;;;15.75;67.04
85758;BME280;76202;52.626;4.746;2024-03-29T06:22:17;98853.28;;;15.74;68.02
85758;BME280;76202;52.626;4.746;2024-03-29T06:24:42;98861.63;;;15.77;67.84
85758;BME280;76202;52.626;4.746;2024-03-29T06:27:09;98865.69;;;15.85;67.57
85758;BME280;76202;52.626;4.746;2024-03-29T06:29:35;98870.81;;;15.91;66.88
85758;BME280;76202;52.626;4.746;2024-03-29T06:32:00;98870.03;;;15.91;66.91
85758;BME280;76202;52.626;4.746;2024-03-29T06:34:26;98880.53;;;15.92;67.10
85758;BME280;76202;52.626;4.746;2024-03-29T06:36:51;98885.38;;;16.00;66.77
85758;BME280;76202;52.626;4.746;2024-03-29T06:39:16;98888.63;;;16.12;66.89
85758;BME280;76202;52.626;4.746;2024-03-29T06:41:42;98895.63;;;16.18;66.26
85758;BME280;76202;52.626;4.746;2024-03-29T06:44:08;98881.63;;;16.11;66.15
85758;BME280;76202;52.626;4.746;2024-03-29T06:46:33;98889.97;;;16.25;66.26
85758;BME280;76202;52.626;4.746;2024-03-29T06:48:59;98896.16;;;16.46;65.99
85758;BME280;76202;52.626;4.746;2024-03-29T06:51:25;98897.50;;;16.68;65.64
85758;BME280;76202;52.626;4.746;2024-03-29T06:53:50;98892.63;;;16.81;65.15
85758;BME280;76202;52.626;4.746;2024-03-29T06:56:17;98893.41;;;16.96;65.71
85758;BME280;76202;52.626;4.746;2024-03-29T06:58:42;98885.28;;;17.06;64.65
85758;BME280;76202;52.626;4.746;2024-03-29T07:01:08;98897.38;;;17.19;64.99
85758;BME280;76202;52.626;4.746;2024-03-29T07:03:36;98892.50;;;17.26;64.59
85758;BME280;76202;52.626;4.746;2024-03-29T07:06:01;98894.66;;;17.24;64.61
85758;BME280;76202;52.626;4.746;2024-03-29T07:08:28;98892.53;;;17.11;64.32
85758;BME280;76202;52.626;4.746;2024-03-29T07:11:02;98892.56;;;17.01;64.41
85758;BME280;76202;52.626;4.746;2024-03-29T07:13:29;98897.72;;;16.97;64.45
85758;BME280;76202;52.626;4.746;2024-03-29T07:15:57;98897.41;;;17.04;64.39
85758;BME280;76202;52.626;4.746;2024-03-29T07:18:22;98892.31;;;17.02;64.56
85758;BME280;76202;52.626;4.746;2024-03-29T07:20:48;98895.25;;;17.11;64.59
85758;BME280;76202;52.626;4.746;2024-03-29T07:23:14;98898.22;;;17.09;64.26
85758;BME280;76202;52.626;4.746;2024-03-29T07:25:39;98901.44;;;17.16;64.01
85758;BME280;76202;52.626;4.746;2024-03-29T07:28:05;98908.16;;;17.29;63.89
85758;BME280;76202;52.626;4.746;2024-03-29T07:30:30;98912.97;;;17.37;63.70
85758;BME280;76202;52.626;4.746;2024-03-29T07:32:56;98925.34;;;17.48;63.46
85758;BME280;76202;52.626;4.746;2024-03-29T07:35:21;98932.13;;;17.56;63.38
85758;BME280;76202;52.626;4.746;2024-03-29T07:37:46;98919.69;;;17.50;63.43
85758;BME280;76202;52.626;4.746;2024-03-29T07:40:14;98908.56;;;17.51;63.35
85758;BME280;76202;52.626;4.746;2024-03-29T07:42:40;98918.59;;;17.56;63.03
85758;BME280;76202;52.626;4.746;2024-03-29T07:45:06;98922.59;;;17.63;63.00
85758;BME280;76202;52.626;4.746;2024-03-29T07:47:31;98939.13;;;17.62;63.17
85758;BME280;76202;52.626;4.746;2024-03-29T07:49:57;98918.81;;;17.64;62.80
85758;BME280;76202;52.626;4.746;2024-03-29T07:52:22;98941.22;;;17.70;62.37
85758;BME280;76202;52.626;4.746;2024-03-29T07:54:48;98942.06;;;17.65;62.86
85758;BME280;76202;52.626;4.746;2024-03-29T07:57:14;98920.19;;;17.62;62.72
85758;BME280;76202;52.626;4.746;2024-03-29T07:59:41;98932.09;;;17.61;62.66
85758;BME280;76202;52.626;4.746;2024-03-29T08:02:07;98920.97;;;17.67;62.38
85758;BME280;76202;52.626;4.746;2024-03-29T08:04:36;98927.66;;;17.75;61.98
85758;BME280;76202;52.626;4.746;2024-03-29T08:07:01;98927.34;;;17.87;62.25
85758;BME280;76202;52.626;4.746;2024-03-29T08:09:27;98937.31;;;17.91;61.79
85758;BME280;76202;52.626;4.746;2024-03-29T08:11:52;98943.00;;;17.90;61.55
85758;BME280;76202;52.626;4.746;2024-03-29T08:14:17;98957.94;;;17.82;61.98
85758;BME280;76202;52.626;4.746;2024-03-29T08:16:43;98967.69;;;17.78;61.87
85758;BME280;76202;52.626;4.746;2024-03-29T08:19:09;98970.69;;;17.71;62.36
85758;BME280;76202;52.626;4.746;2024-03-29T08:21:35;98968.84;;;17.62;62.08
85758;BME280;76202;52.626;4.746;2024-03-29T08:24:01;98964.56;;;17.56;62.75
85758;BME280;76202;52.626;4.746;2024-03-29T08:26:27;98977.25;;;17.55;62.61
85758;BME280;76202;52.626;4.746;2024-03-29T08:28:56;98980.75;;;17.51;62.39
85758;BME280;76202;52.626;4.746;2024-03-29T08:31:21;98973.19;;;17.53;62.37
85758;BME280;76202;52.626;4.746;2024-03-29T08:33:49;98960.22;;;17.55;62.50
85758;BME280;76202;52.626;4.746;2024-03-29T08:36:14;98953.19;;;17.59;62.67
85758;BME280;76202;52.626;4.746;2024-03-29T08:38:43;98955.03;;;17.63;62.06
85758;BME280;76202;52.626;4.746;2024-03-29T08:41:11;98955.25;;;17.72;62.04
85758;BME280;76202;52.626;4.746;2024-03-29T08:43:37;98964.72;;;17.74;61.68
85758;BME280;76202;52.626;4.746;2024-03-29T08:46:04;98970.69;;;17.76;61.89
85758;BME280;76202;52.626;4.746;2024-03-29T08:48:29;98974.72;;;17.79;61.73
85758;BME280;76202;52.626;4.746;2024-03-29T08:50:55;98987.13;;;17.85;62.15
85758;BME280;76202;52.626;4.746;2024-03-29T08:53:20;98982.50;;;17.91;61.68
85758;BME280;76202;52.626;4.746;2024-03-29T08:55:50;98977.31;;;17.99;61.24
85758;BME280;76202;52.626;4.746;2024-03-29T08:58:16;98984.81;;;18.07;60.91
85758;BME280;76202;52.626;4.746;2024-03-29T09:00:43;98982.41;;;18.06;61.46
85758;BME280;76202;52.626;4.746;2024-03-29T09:03:08;98979.75;;;18.01;61.47
85758;BME280;76202;52.626;4.746;2024-03-29T09:05:33;99001.69;;;17.94;61.29
85758;BME280;76202;52.626;4.746;2024-03-29T09:07:59;99001.38;;;17.96;61.53
85758;BME280;76202;52.626;4.746;2024-03-29T09:10:25;99004.38;;;17.89;62.22
85758;BME280;76202;52.626;4.746;2024-03-29T09:12:52;99013.31;;;17.90;61.69
85758;BME280;76202;52.626;4.746;2024-03-29T09:15:17;99016.84;;;17.90;61.57
85758;BME280;76202;52.626;4.746;2024-03-29T09:17:44;99005.53;;;17.83;61.56
85758;BME280;76202;52.626;4.746;2024-03-29T09:20:10;99003.91;;;17.82;61.81
85758;BME280;76202;52.626;4.746;2024-03-29T09:22:36;99014.47;;;17.78;61.43
85758;BME280;76202;52.626;4.746;2024-03-29T09:25:03;99008.25;;;17.78;61.75
85758;BME280;76202;52.626;4.746;2024-03-29T09:27:28;99013.66;;;17.78;61.84
85758;BME280;76202;52.626;4.746;2024-03-29T09:29:57;99026.63;;;17.81;61.50
85758;BME280;76202;52.626;4.746;2024-03-29T09:32:23;99017.16;;;17.78;61.67
85758;BME280;76202;52.626;4.746;2024-03-29T09:34:48;99017.16;;;17.78;62.10
85758;BME280;76202;52.626;4.746;2024-03-29T09:37:14;99011.50;;;17.80;62.05
85758;BME280;76202;52.626;4.746;2024-03-29T09:39:39;99018.22;;;17.88;61.92
85758;BME280;76202;52.626;4.746;2024-03-29T09:42:06;98995.28;;;17.80;61.96
85758;BME280;76202;52.626;4.746;2024-03-29T09:44:33;98996.59;;;17.77;61.50
85758;BME280;76202;52.626;4.746;2024-03-29T09:47:05;99003.63;;;17.83;61.76
85758;BME280;76202;52.626;4.746;2024-03-29T09:49:32;99018.50;;;17.81;61.48
85758;BME280;76202;52.626;4.746;2024-03-29T09:52:01;99023.41;;;17.74;62.40
85758;BME280;76202;52.626;4.746;2024-03-29T09:54:30;99021.78;;;17.73;62.24
85758;BME280;76202;52.626;4.746;2024-03-29T09:56:56;99020.72;;;17.69;62.27
85758;BME280;76202;52.626;4.746;2024-03-29T09:59:23;99019.09;;;17.73;61.87
85758;BME280;76202;52.626;4.746;2024-03-29T10:01:51;99014.75;;;17.77;61.43
85758;BME280;76202;52.626;4.746;2024-03-29T10:04:24;99001.53;;;17.70;62.07
85758;BME280;76202;52.626;4.746;2024-03-29T10:06:50;99019.63;;;17.70;62.05
85758;BME280;76202;52.626;4.746;2024-03-29T10:09:17;99013.16;;;17.71;61.80
85758;BME280;76202;52.626;4.746;2024-03-29T10:11:43;99013.13;;;17.76;61.47
85758;BME280;76202;52.626;4.746;2024-03-29T10:14:09;99017.69;;;17.80;62.00
85758;BME280;76202;52.626;4.746;2024-03-29T10:16:37;99020.94;;;17.77;61.79
85758;BME280;76202;52.626;4.746;2024-03-29T10:19:03;99014.44;;;17.83;61.66
85758;BME280;76202;52.626;4.746;2024-03-29T10:21:29;99014.66;;;17.92;60.95
85758;BME280;76202;52.626;4.746;2024-03-29T10:23:54;99010.91;;;17.88;61.24
85758;BME280;76202;52.626;4.746;2024-03-29T10:26:21;99010.91;;;17.88;61.26
85758;BME280;76202;52.626;4.746;2024-03-29T10:28:47;99017.13;;;17.89;61.43
85758;BME280;76202;52.626;4.746;2024-03-29T10:31:13;99029.59;;;17.79;61.52
85758;BME280;76202;52.626;4.746;2024-03-29T10:33:42;99031.25;;;17.75;62.00
85758;BME280;76202;52.626;4.746;2024-03-29T10:36:08;99026.91;;;17.79;61.61
85758;BME280;76202;52.626;4.746;2024-03-29T10:38:36;99034.47;;;17.77;62.04
85758;BME280;76202;52.626;4.746;2024-03-29T10:41:02;99034.47;;;17.77;62.04
85758;BME280;76202;52.626;4.746;2024-03-29T10:43:33;99032.59;;;17.73;61.92
85758;BME280;76202;52.626;4.746;2024-03-29T10:46:04;99034.22;;;17.74;62.28
85758;BME280;76202;52.626;4.746;2024-03-29T10:48:31;99039.63;;;17.69;62.43
85758;BME280;76202;52.626;4.746;2024-03-29T10:51:01;99041.50;;;17.78;62.18
85758;BME280;76202;52.626;4.746;2024-03-29T10:53:27;99040.44;;;17.74;62.48
85758;BME280;76202;52.626;4.746;2024-03-29T10:55:54;99048.53;;;17.74;62.34
85758;BME280;76202;52.626;4.746;2024-03-29T10:58:21;99049.91;;;17.77;62.17
85758;BME280;76202;52.626;4.746;2024-03-29T11:00:53;99050.97;;;17.76;62.57
85758;BME280;76202;52.626;4.746;2024-03-29T11:03:47;99057.69;;;17.83;62.24
85758;BME280;76202;52.626;4.746;2024-03-29T11:06:17;99057.44;;;17.85;62.23
85758;BME280;76202;52.626;4.746;2024-03-29T11:08:47;99055.53;;;17.80;62.00
85758;BME280;76202;52.626;4.746;2024-03-29T11:11:17;99053.91;;;17.84;62.09
85758;BME280;76202;52.626;4.746;2024-03-29T11:13:49;99057.97;;;17.87;61.89
85758;BME280;76202;52.626;4.746;2024-03-29T11:16:18;99059.59;;;17.88;61.77
85758;BME280;76202;52.626;4.746;2024-03-29T11:18:47;99059.84;;;17.92;62.01
85758;BME280;76202;52.626;4.746;2024-03-29T11:21:17;99063.91;;;17.94;61.94
85758;BME280;76202;52.626;4.746;2024-03-29T11:23:51;99064.72;;;17.95;61.51
85758;BME280;76202;52.626;4.746;2024-03-29T11:26:17;99061.50;;;18.36;61.57
85758;BME280;76202;52.626;4.746;2024-03-29T11:28:48;99058.09;;;18.65;60.54
85758;BME280;76202;52.626;4.746;2024-03-29T11:31:14;99059.91;;;18.35;61.10
85758;BME280;76202;52.626;4.746;2024-03-29T11:36:18;99056.50;;;18.10;61.92
85758;BME280;76202;52.626;4.746;2024-03-29T11:38:46;99066.00;;;18.02;61.86
85758;BME280;76202;52.626;4.746;2024-03-29T11:41:15;99070.09;;;18.00;62.19
85758;BME280;76202;52.626;4.746;2024-03-29T11:43:41;99071.47;;;17.92;62.05
85758;BME280;76202;52.626;4.746;2024-03-29T11:46:12;99068.78;;;17.87;62.54
85758;BME280;76202;52.626;4.746;2024-03-29T11:48:39;99080.97;;;17.84;62.46
85758;BME280;76202;52.626;4.746;2024-03-29T11:51:06;99083.94;;;17.88;62.62
85758;BME280;76202;52.626;4.746;2024-03-29T11:53:33;99077.41;;;17.94;62.37
85758;BME280;76202;52.626;4.746;2024-03-29T11:56:00;99093.88;;;18.03;61.57
85758;BME280;76202;52.626;4.746;2024-03-29T11:58:29;99114.47;;;17.94;62.34
85758;BME280;76202;52.626;4.746;2024-03-29T12:00:57;99102.81;;;17.98;61.99
85758;BME280;76202;52.626;4.746;2024-03-29T12:03:30;99105.03;;;17.91;62.39
85758;BME280;76202;52.626;4.746;2024-03-29T12:05:59;99110.69;;;17.95;62.38
85758;BME280;76202;52.626;4.746;2024-03-29T12:08:32;99109.88;;;17.89;62.47
85758;BME280;76202;52.626;4.746;2024-03-29T12:11:00;99105.56;;;17.88;61.89
85758;BME280;76202;52.626;4.746;2024-03-29T12:13:28;99103.09;;;17.97;62.18
85758;BME280;76202;52.626;4.746;2024-03-29T12:15:54;99107.97;;;18.00;62.09
85758;BME280;76202;52.626;4.746;2024-03-29T12:18:20;99106.59;;;18.02;62.14
85758;BME280;76202;52.626;4.746;2024-03-29T12:20:48;99114.72;;;18.02;62.45
85758;BME280;76202;52.626;4.746;2024-03-29T12:23:15;99106.06;;;18.00;62.27
85758;BME280;76202;52.626;4.746;2024-03-29T12:25:41;99109.28;;;18.02;62.13
85758;BME280;76202;52.626;4.746;2024-03-29T12:28:08;99109.03;;;18.04;62.60
85758;BME280;76202;52.626;4.746;2024-03-29T12:30:34;99114.19;;;18.00;62.40
85758;BME280;76202;52.626;4.746;2024-03-29T12:33:08;99100.66;;;18.00;61.70
85758;BME280;76202;52.626;4.746;2024-03-29T12:35:37;99110.94;;;18.03;62.47
85758;BME280;76202;52.626;4.746;2024-03-29T12:38:04;99106.06;;;18.00;62.48
85758;BME280;76202;52.626;4.746;2024-03-29T12:40:32;99086.91;;;17.92;62.64
85758;BME280;76202;52.626;4.746;2024-03-29T12:43:03;99092.31;;;17.92;62.67
85758;BME280;76202;52.626;4.746;2024-03-29T12:45:33;99087.72;;;17.87;62.75
85758;BME280;76202;52.626;4.746;2024-03-29T12:47:59;99088.25;;;17.84;62.76
85758;BME280;76202;52.626;4.746;2024-03-29T12:50:29;99086.63;;;17.88;62.77
85758;BME280;76202;52.626;4.746;2024-03-29T12:52:57;99100.41;;;17.87;62.74
85758;BME280;76202;52.626;4.746;2024-03-29T12:55:24;99102.56;;;17.90;62.16
85758;BME280;76202;52.626;4.746;2024-03-29T12:57:50;99105.56;;;17.88;62.84
85758;BME280;76202;52.626;4.746;2024-03-29T13:00:20;99116.09;;;17.90;62.59